Time;durP1;ratioP1;P1;durP2;ratioP2;P2;SDS_P1;SDS_P2;PMS_P1;PMS_P2;Temp;Humidity;BMP_temperature;BMP_pressure;BME280_temperature;BME280_humidity;BME280_pressure;Samples;Min_cycle;Max_cycle;Signal;HPM_P1;HPM_P2
2023/07/13 00:02:27;;;;;;;4.72;4.20;;;;;19.80;96218.00;;;;8281873;28;20317;-71
2023/07/13 00:06:32;;;;;;;9.65;4.88;;;;;19.80;96218.00;;;;8270922;28;20212;-70
2023/07/13 00:10:58;;;;;;;10.52;4.60;;;;;19.80;96223.00;;;;8269323;28;20217;-70
2023/07/13 00:15:07;;;;;;;6.57;4.65;;;;;19.70;96234.00;;;;8283924;28;20260;-71
2023/07/13 00:19:11;;;;;;;13.13;5.28;;;;;19.70;96235.00;;;;8278579;28;20315;-70
2023/07/13 00:23:15;;;;;;;11.77;5.47;;;;;19.70;96233.00;;;;8272560;28;20199;-70
2023/07/13 00:27:20;;;;;;;11.85;4.68;;;;;19.80;96218.00;;;;8281376;28;20201;-70
2023/07/13 00:31:25;;;;;;;9.60;5.00;;;;;19.70;96228.00;;;;8289061;28;20379;-71
2023/07/13 00:35:31;;;;;;;12.65;5.80;;;;;19.70;96232.00;;;;8289317;28;20199;-70
2023/07/13 00:39:34;;;;;;;12.77;5.63;;;;;19.60;96214.00;;;;8285700;28;20281;-71
2023/07/13 00:43:39;;;;;;;12.50;5.90;;;;;19.60;96219.00;;;;8288729;28;20210;-70
2023/07/13 00:47:44;;;;;;;20.63;5.88;;;;;19.60;96214.00;;;;8275675;28;20727;-69
2023/07/13 00:51:51;;;;;;;13.50;6.10;;;;;19.60;96218.00;;;;8287568;28;20234;-70
2023/07/13 00:55:58;;;;;;;20.00;5.93;;;;;19.60;96205.00;;;;8269096;28;20201;-70
2023/07/13 01:00:08;;;;;;;14.30;6.28;;;;;19.60;96210.00;;;;8279822;28;20226;-70
2023/07/13 01:04:17;;;;;;;15.95;7.47;;;;;19.60;96209.00;;;;8281227;28;20242;-70
2023/07/13 01:08:26;;;;;;;11.52;7.70;;;;;19.60;96212.00;;;;8283293;28;20210;-71
2023/07/13 01:12:30;;;;;;;13.52;7.05;;;;;19.60;96215.00;;;;8270402;28;20345;-70
2023/07/13 01:16:39;;;;;;;19.55;7.57;;;;;19.60;96213.00;;;;8288390;28;20629;-71
2023/07/13 01:20:50;;;;;;;22.80;8.05;;;;;19.50;96219.00;;;;8286376;28;20272;-70
2023/07/13 01:24:54;;;;;;;20.75;7.97;;;;;19.50;96216.00;;;;8286887;28;20253;-71
2023/07/13 01:29:00;;;;;;;17.60;7.95;;;;;19.40;96208.00;;;;8281036;28;20671;-70
2023/07/13 01:33:07;;;;;;;21.77;8.77;;;;;19.40;96196.00;;;;8287283;28;20317;-71
2023/07/13 01:37:13;;;;;;;20.70;8.15;;;;;19.40;96194.00;;;;8281043;28;20256;-70
2023/07/13 01:41:16;;;;;;;27.10;8.77;;;;;19.30;96189.00;;;;8286178;28;20217;-70
2023/07/13 01:45:22;;;;;;;24.33;9.38;;;;;19.30;96186.00;;;;8280256;28;20658;-71
2023/07/13 01:49:26;;;;;;;21.50;8.98;;;;;19.30;96195.00;;;;8288345;28;20261;-69
2023/07/13 01:53:31;;;;;;;26.80;9.93;;;;;19.20;96184.00;;;;8287601;28;20393;-70
2023/07/13 01:57:36;;;;;;;24.13;8.85;;;;;19.20;96188.00;;;;8276215;28;20217;-70
2023/07/13 02:01:42;;;;;;;20.27;9.52;;;;;19.20;96183.00;;;;8263716;28;20202;-70
2023/07/13 02:05:45;;;;;;;18.60;9.05;;;;;19.20;96195.00;;;;8264380;28;20253;-70
2023/07/13 02:09:52;;;;;;;21.05;8.98;;;;;19.10;96182.00;;;;8280016;28;20202;-70
2023/07/13 02:13:58;;;;;;;21.45;8.90;;;;;19.00;96174.00;;;;8283450;28;20236;-70
2023/07/13 02:18:03;;;;;;;25.73;9.40;;;;;18.90;96172.00;;;;8286335;28;20741;-70
2023/07/13 02:22:06;;;;;;;27.60;8.52;;;;;18.90;96172.00;;;;8289540;28;20209;-71
2023/07/13 02:26:13;;;;;;;18.27;8.25;;;;;18.90;96182.00;;;;8286982;28;20556;-71
2023/07/13 02:30:17;;;;;;;18.00;8.13;;;;;18.80;96185.00;;;;8268779;28;20241;-71
2023/07/13 02:34:22;;;;;;;23.52;8.68;;;;;18.90;96194.00;;;;8286073;28;20361;-70
2023/07/13 02:38:25;;;;;;;20.02;8.65;;;;;18.80;96201.00;;;;8288793;28;20202;-72
2023/07/13 02:42:33;;;;;;;27.33;9.15;;;;;18.80;96195.00;;;;8280658;28;20246;-71
2023/07/13 02:46:39;;;;;;;24.73;8.35;;;;;18.70;96207.00;;;;8281558;28;20224;-71
2023/07/13 02:50:43;;;;;;;28.23;8.95;;;;;18.60;96207.00;;;;8287553;28;20269;-71
2023/07/13 02:54:46;;;;;;;22.02;9.63;;;;;18.50;96203.00;;;;8260179;28;20237;-71
2023/07/13 02:58:53;;;;;;;33.30;9.90;;;;;18.40;96197.00;;;;8285528;28;20202;-71
2023/07/13 03:02:58;;;;;;;33.00;9.77;;;;;18.30;96208.00;;;;8339197;22;20240;-70
2023/07/13 03:07:01;;;;;;;37.60;9.00;;;;;18.20;96201.00;;;;8330221;28;20223;-71
2023/07/13 03:11:10;;;;;;;34.25;9.25;;;;;18.10;96212.00;;;;8341446;28;20204;-71
2023/07/13 03:15:18;;;;;;;25.10;8.45;;;;;18.10;96204.00;;;;8343993;28;20723;-71
2023/07/13 03:19:24;;;;;;;10.40;6.88;;;;;18.00;96211.00;;;;8339476;28;20200;-71
2023/07/13 03:23:27;;;;;;;20.30;7.47;;;;;18.00;96222.00;;;;8335077;28;20212;-73
2023/07/13 03:27:30;;;;;;;22.77;7.93;;;;;18.00;96232.00;;;;8331045;28;20233;-72
2023/07/13 03:31:37;;;;;;;13.88;7.53;;;;;17.90;96238.00;;;;8340203;28;20240;-73
2023/07/13 03:35:45;;;;;;;44.85;8.07;;;;;17.90;96245.00;;;;8325687;28;21011;-72
2023/07/13 03:39:51;;;;;;;17.17;7.18;;;;;17.90;96251.00;;;;8343002;28;20205;-72
2023/07/13 03:43:56;;;;;;;13.57;6.60;;;;;17.90;96254.00;;;;8335212;28;20284;-71
2023/07/13 03:48:01;;;;;;;19.35;7.30;;;;;17.90;96255.00;;;;8337521;28;20394;-72
2023/07/13 03:52:07;;;;;;;20.15;7.95;;;;;17.90;96263.00;;;;8333584;28;20706;-71
2023/07/13 03:56:18;;;;;;;30.65;8.25;;;;;17.90;96263.00;;;;8335078;28;20205;-71
2023/07/13 04:00:24;;;;;;;17.10;7.55;;;;;18.00;96263.00;;;;8345701;28;20213;-71
2023/07/13 04:04:31;;;;;;;22.20;7.38;;;;;18.10;96268.00;;;;8329241;28;20307;-71
2023/07/13 04:08:38;;;;;;;19.15;8.20;;;;;18.20;96277.00;;;;8299831;28;20208;-72
2023/07/13 04:12:43;;;;;;;10.20;6.07;;;;;18.30;96274.00;;;;8323549;28;20228;-72
2023/07/13 04:16:46;;;;;;;14.48;6.80;;;;;18.50;96267.00;;;;8323031;28;20328;-71
2023/07/13 04:20:52;;;;;;;19.98;7.22;;;;;18.60;96264.00;;;;8324955;28;20289;-72
2023/07/13 04:24:55;;;;;;;17.02;6.20;;;;;18.80;96265.00;;;;8331978;28;20293;-71
2023/07/13 04:28:58;;;;;;;16.30;6.25;;;;;19.00;96273.00;;;;8326305;28;20201;-73
2023/07/13 04:33:04;;;;;;;16.67;6.47;;;;;19.20;96277.00;;;;8323262;28;20221;-73
2023/07/13 04:37:09;;;;;;;21.27;5.22;;;;;19.50;96286.00;;;;8324629;28;20763;-72
2023/07/13 04:41:15;;;;;;;15.73;5.75;;;;;19.60;96287.00;;;;8328230;28;20316;-72
2023/07/13 04:45:20;;;;;;;15.68;5.10;;;;;19.50;96271.00;;;;8324781;28;20653;-72
2023/07/13 04:49:23;;;;;;;17.60;5.43;;;;;19.50;96275.00;;;;8323105;28;20216;-73
2023/07/13 04:53:32;;;;;;;13.10;4.82;;;;;19.50;96274.00;;;;8312248;28;20260;-72
2023/07/13 04:57:38;;;;;;;12.30;4.60;;;;;19.50;96293.00;;;;8254925;28;20655;-71
2023/07/13 05:01:41;;;;;;;10.48;3.58;;;;;19.40;96298.00;;;;8257960;28;20317;-72
2023/07/13 05:05:56;;;;;;;11.15;4.18;;;;;19.30;96309.00;;;;8258073;28;20277;-72
2023/07/13 05:10:01;;;;;;;8.80;4.10;;;;;19.40;96309.00;;;;8254286;28;20242;-72
2023/07/13 05:14:09;;;;;;;9.15;4.78;;;;;19.40;96318.00;;;;8250187;28;20695;-73
2023/07/13 05:18:12;;;;;;;14.88;4.55;;;;;19.40;96325.00;;;;8253560;28;20270;-72
2023/07/13 05:22:15;;;;;;;14.65;4.25;;;;;19.50;96327.00;;;;8271638;28;20581;-73
2023/07/13 05:26:20;;;;;;;9.52;3.60;;;;;20.00;96327.00;;;;8253009;28;20209;-69
2023/07/13 05:30:23;;;;;;;4.45;3.20;;;;;20.50;96325.00;;;;8251546;28;20640;-72
2023/07/13 05:34:26;;;;;;;6.15;3.58;;;;;20.90;96335.00;;;;8252958;28;20714;-75
2023/07/13 05:38:30;;;;;;;4.45;2.88;;;;;21.00;96340.00;;;;8252889;28;20207;-71
2023/07/13 05:42:37;;;;;;;7.45;3.10;;;;;21.10;96344.00;;;;8256186;28;20249;-72
2023/07/13 05:46:43;;;;;;;6.07;2.78;;;;;21.00;96347.00;;;;8253346;28;20298;-74
2023/07/13 05:50:48;;;;;;;3.95;2.45;;;;;21.10;96347.00;;;;8252910;28;20217;-72
2023/07/13 05:54:51;;;;;;;6.57;2.80;;;;;21.50;96346.00;;;;8250676;28;20274;-74
2023/07/13 05:58:58;;;;;;;4.15;2.10;;;;;21.90;96337.00;;;;8253759;28;20241;-74
2023/07/13 06:03:03;;;;;;;7.07;2.42;;;;;21.80;96334.00;;;;8247625;28;20265;-74
2023/07/13 06:07:07;;;;;;;4.32;2.35;;;;;21.70;96341.00;;;;8254814;28;20641;-74
2023/07/13 06:11:18;;;;;;;6.00;2.60;;;;;22.10;96348.00;;;;8248870;28;20295;-73
2023/07/13 06:15:23;;;;;;;4.13;2.63;;;;;23.00;96343.00;;;;8249912;28;20441;-74
2023/07/13 06:19:26;;;;;;;2.90;2.63;;;;;23.20;96350.00;;;;8250445;28;20270;-69
2023/07/13 06:23:30;;;;;;;5.93;2.20;;;;;23.40;96350.00;;;;8245179;28;20231;-67
2023/07/13 06:27:33;;;;;;;5.88;2.30;;;;;23.80;96355.00;;;;8247527;28;20217;-67
2023/07/13 06:31:38;;;;;;;4.28;2.45;;;;;24.30;96366.00;;;;8251829;28;20266;-66
2023/07/13 06:35:44;;;;;;;5.72;2.30;;;;;24.60;96368.00;;;;8250294;28;20753;-69
2023/07/13 06:39:53;;;;;;;3.58;2.10;;;;;25.30;96363.00;;;;8251608;28;20617;-65
2023/07/13 06:43:56;;;;;;;2.88;2.38;;;;;25.70;96364.00;;;;8247168;28;20632;-67
2023/07/13 06:48:10;;;;;;;3.95;2.20;;;;;25.80;96369.00;;;;8250829;28;20202;-68
2023/07/13 06:52:13;;;;;;;2.53;2.30;;;;;26.30;96375.00;;;;8249346;28;20254;-67
2023/07/13 06:56:17;;;;;;;3.67;2.15;;;;;26.60;96378.00;;;;8249693;28;20269;-68
2023/07/13 07:00:21;;;;;;;2.20;2.00;;;;;27.10;96378.00;;;;8254230;28;20954;-67
2023/07/13 07:04:25;;;;;;;5.38;2.10;;;;;27.40;96383.00;;;;8244288;28;20730;-66
2023/07/13 07:08:31;;;;;;;4.32;2.13;;;;;27.30;96387.00;;;;8248650;28;20290;-67
2023/07/13 07:12:34;;;;;;;2.00;1.85;;;;;27.50;96391.00;;;;8245058;28;20284;-67
2023/07/13 07:16:39;;;;;;;2.97;1.90;;;;;27.10;96402.00;;;;8246454;28;20326;-67
2023/07/13 07:20:46;;;;;;;6.95;2.13;;;;;26.40;96398.00;;;;8247268;28;20306;-66
2023/07/13 07:24:49;;;;;;;3.88;2.17;;;;;26.00;96415.00;;;;8247981;28;20727;-66
2023/07/13 07:28:53;;;;;;;7.00;2.00;;;;;25.30;96412.00;;;;8242538;28;20207;-67
2023/07/13 07:33:17;;;;;;;3.50;2.05;;;;;25.50;96416.00;;;;8246003;28;20655;-67
2023/07/13 07:37:22;;;;;;;3.50;2.30;;;;;25.40;96421.00;;;;8242895;28;20211;-68
2023/07/13 07:41:48;;;;;;;6.93;2.00;;;;;24.90;96426.00;;;;8243419;28;20481;-67
2023/07/13 07:45:54;;;;;;;5.07;2.15;;;;;25.50;96438.00;;;;8240871;28;20241;-66
2023/07/13 07:49:57;;;;;;;5.10;2.00;;;;;26.50;96438.00;;;;8243925;28;20214;-67
2023/07/13 07:54:07;;;;;;;6.07;2.15;;;;;27.20;96447.00;;;;8246724;28;20230;-67
2023/07/13 07:58:10;;;;;;;4.95;2.03;;;;;27.10;96447.00;;;;8245425;28;20767;-66
2023/07/13 08:02:33;;;;;;;2.35;1.98;;;;;27.40;96445.00;;;;8233379;28;20252;-65
2023/07/13 08:06:39;;;;;;;6.88;1.95;;;;;28.10;96440.00;;;;8228973;28;20652;-69
2023/07/13 08:10:49;;;;;;;5.05;2.00;;;;;28.60;96449.00;;;;8246791;28;20249;-67
2023/07/13 08:14:57;;;;;;;2.50;1.75;;;;;28.90;96450.00;;;;8243873;28;20248;-66
2023/07/13 08:19:02;;;;;;;4.93;1.90;;;;;29.60;96453.00;;;;8246812;28;20210;-66
2023/07/13 08:23:07;;;;;;;6.65;2.03;;;;;29.80;96455.00;;;;8249632;28;20221;-66
2023/07/13 08:27:30;;;;;;;4.43;1.80;;;;;29.50;96469.00;;;;8251405;28;20687;-65
2023/07/13 08:31:33;;;;;;;3.53;2.00;;;;;28.50;96470.00;;;;8244809;28;20285;-65
2023/07/13 08:35:43;;;;;;;3.75;2.40;;;;;28.10;96473.00;;;;8247812;28;20296;-66
2023/07/13 08:39:47;;;;;;;6.90;2.75;;;;;28.70;96477.00;;;;8245957;28;20237;-67
2023/07/13 08:43:59;;;;;;;11.07;2.10;;;;;29.20;96477.00;;;;8245491;28;20683;-64
2023/07/13 08:48:06;;;;;;;3.03;1.75;;;;;29.80;96475.00;;;;8257645;28;21066;-65
2023/07/13 08:52:20;;;;;;;2.22;1.65;;;;;29.80;96479.00;;;;8242779;28;20334;-65
2023/07/13 08:56:29;;;;;;;4.78;1.77;;;;;29.60;96485.00;;;;8255309;28;20357;-64
2023/07/13 09:00:43;;;;;;;4.45;1.73;;;;;28.70;96495.00;;;;8254932;28;20285;-69
2023/07/13 09:04:51;;;;;;;2.47;1.60;;;;;27.90;96495.00;;;;8250055;28;20853;-65
2023/07/13 09:09:03;;;;;;;2.00;1.63;;;;;27.50;96492.00;;;;8251976;28;20207;-67
2023/07/13 09:13:26;;;;;;;2.63;1.73;;;;;27.30;96497.00;;;;8257510;28;20222;-66
2023/07/13 09:17:36;;;;;;;3.25;1.90;;;;;27.20;96504.00;;;;8255023;28;20329;-65
2023/07/13 09:21:43;;;;;;;4.20;1.95;;;;;27.40;96484.00;;;;8262587;28;20195;-67
2023/07/13 09:25:55;;;;;;;1.90;1.50;;;;;27.90;96496.00;;;;8256365;28;20363;-66
2023/07/13 09:30:12;;;;;;;2.95;2.00;;;;;28.40;96501.00;;;;8255915;28;20612;-66
2023/07/13 09:34:17;;;;;;;3.55;1.67;;;;;28.80;96499.00;;;;8255234;28;20325;-67
2023/07/13 09:38:31;;;;;;;6.20;1.73;;;;;29.60;96495.00;;;;8256493;28;20297;-67
2023/07/13 09:42:41;;;;;;;6.43;1.83;;;;;30.10;96484.00;;;;8242132;28;20215;-65
2023/07/13 09:46:46;;;;;;;3.42;2.00;;;;;30.50;96484.00;;;;8251939;28;20653;-66
2023/07/13 09:51:01;;;;;;;6.55;1.75;;;;;30.70;96491.00;;;;8254834;28;20207;-65
2023/07/13 09:55:23;;;;;;;4.75;1.63;;;;;31.10;96496.00;;;;8245828;28;20730;-67
2023/07/13 09:59:31;;;;;;;5.22;1.60;;;;;30.10;96502.00;;;;8247567;28;20274;-67
2023/07/13 10:03:37;;;;;;;3.95;1.73;;;;;30.20;96500.00;;;;8253037;28;20234;-68
2023/07/13 10:07:45;;;;;;;3.03;1.52;;;;;30.60;96505.00;;;;8250577;28;20230;-67
2023/07/13 10:11:52;;;;;;;5.90;1.83;;;;;30.90;96507.00;;;;8251520;28;20287;-66
2023/07/13 10:15:58;;;;;;;5.22;1.60;;;;;30.60;96510.00;;;;8249873;28;20328;-65
2023/07/13 10:20:04;;;;;;;3.75;1.60;;;;;30.70;96505.00;;;;8249793;28;20326;-66
2023/07/13 10:24:18;;;;;;;2.22;1.35;;;;;30.70;96509.00;;;;8251768;28;20207;-64
2023/07/13 10:28:30;;;;;;;1.95;1.50;;;;;30.40;96516.00;;;;8250792;28;20219;-65
2023/07/13 10:32:37;;;;;;;2.55;1.42;;;;;30.00;96523.00;;;;8253002;28;20321;-67
2023/07/13 10:36:43;;;;;;;2.00;1.45;;;;;29.20;96520.00;;;;8253426;28;20702;-66
2023/07/13 10:40:57;;;;;;;4.15;1.50;;;;;28.80;96511.00;;;;8252146;28;20298;-65
2023/07/13 10:45:04;;;;;;;2.13;1.63;;;;;29.40;96512.00;;;;8246030;28;20215;-65
2023/07/13 10:49:11;;;;;;;3.00;1.45;;;;;29.50;96510.00;;;;8245982;28;20256;-66
2023/07/13 10:53:22;;;;;;;5.20;1.60;;;;;30.00;96509.00;;;;8250778;28;20311;-66
2023/07/13 10:57:27;;;;;;;4.00;1.60;;;;;30.70;96516.00;;;;8245972;28;20718;-64
2023/07/13 11:01:42;;;;;;;1.55;1.45;;;;;30.80;96516.00;;;;8247281;28;20294;-65
2023/07/13 11:05:52;;;;;;;3.60;1.65;;;;;31.30;96498.00;;;;8244574;28;20226;-65
2023/07/13 11:09:56;;;;;;;1.75;1.45;;;;;31.80;96514.00;;;;8243269;28;20207;-66
2023/07/13 11:14:04;;;;;;;4.93;1.60;;;;;31.70;96509.00;;;;8245668;28;20231;-64
2023/07/13 11:18:24;;;;;;;2.67;1.30;;;;;31.70;96516.00;;;;8248093;28;20333;-66
2023/07/13 11:22:43;;;;;;;3.70;1.33;;;;;31.90;96504.00;;;;8239765;28;20246;-65
2023/07/13 11:26:53;;;;;;;7.63;1.73;;;;;32.40;96511.00;;;;8243123;28;20600;-65
2023/07/13 11:31:26;;;;;;;4.07;1.45;;;;;32.70;96507.00;;;;8247058;28;20289;-65
2023/07/13 11:35:30;;;;;;;5.63;1.90;;;;;32.80;96513.00;;;;8210139;28;20288;-66
2023/07/13 11:39:39;;;;;;;1.80;1.40;;;;;32.90;96511.00;;;;8249881;28;20313;-65
2023/07/13 11:43:51;;;;;;;2.08;1.30;;;;;32.20;96499.00;;;;8243766;28;20518;-65
2023/07/13 11:47:56;;;;;;;1.83;1.45;;;;;32.30;96501.00;;;;8248606;28;20202;-67
2023/07/13 11:52:12;;;;;;;1.80;1.40;;;;;32.50;96498.00;;;;8245073;28;20241;-69
2023/07/13 11:56:15;;;;;;;1.40;1.30;;;;;32.70;96509.00;;;;8247518;28;20739;-70
2023/07/13 12:00:24;;;;;;;2.13;1.55;;;;;32.60;96504.00;;;;8244401;28;20637;-70
2023/07/13 12:04:34;;;;;;;3.30;1.55;;;;;32.50;96508.00;;;;8247585;28;20352;-69
2023/07/13 12:08:40;;;;;;;2.85;1.30;;;;;32.80;96512.00;;;;8244730;28;20205;-70
2023/07/13 12:12:54;;;;;;;1.88;1.40;;;;;32.60;96510.00;;;;8241471;28;20210;-68
2023/07/13 12:16:58;;;;;;;1.70;1.25;;;;;33.10;96512.00;;;;8242439;28;20314;-68
2023/07/13 12:21:04;;;;;;;3.05;1.40;;;;;33.10;96505.00;;;;8250225;28;20640;-68
2023/07/13 12:25:13;;;;;;;5.30;1.40;;;;;33.20;96499.00;;;;8256355;28;20289;-68
2023/07/13 12:29:19;;;;;;;2.92;1.60;;;;;33.30;96501.00;;;;8252588;28;20243;-71
2023/07/13 12:33:28;;;;;;;1.90;1.52;;;;;33.30;96491.00;;;;8258133;28;20202;-69
2023/07/13 12:37:35;;;;;;;3.20;1.70;;;;;33.30;96486.00;;;;8252548;28;20268;-68
2023/07/13 12:41:41;;;;;;;2.70;1.40;;;;;33.00;96504.00;;;;8249254;28;20295;-68
2023/07/13 12:45:57;;;;;;;3.28;1.63;;;;;32.30;96490.00;;;;8252054;28;20203;-68
2023/07/13 12:50:06;;;;;;;2.35;1.50;;;;;31.90;96485.00;;;;8246462;28;20219;-66
2023/07/13 12:54:20;;;;;;;3.72;1.30;;;;;31.80;96485.00;;;;8251660;28;20207;-68
2023/07/13 12:58:30;;;;;;;1.73;1.63;;;;;31.10;96479.00;;;;8247349;28;20223;-67
2023/07/13 13:02:37;;;;;;;3.58;1.50;;;;;30.70;96470.00;;;;8245146;28;20254;-69
2023/07/13 13:06:42;;;;;;;1.45;1.20;;;;;30.70;96472.00;;;;8254890;28;20210;-68
2023/07/13 13:10:49;;;;;;;4.70;1.80;;;;;30.60;96465.00;;;;8249008;28;20223;-68
2023/07/13 13:14:57;;;;;;;1.73;1.40;;;;;30.60;96455.00;;;;8240692;28;20207;-69
2023/07/13 13:19:13;;;;;;;7.38;1.85;;;;;30.50;96460.00;;;;8241804;28;20238;-67
2023/07/13 13:23:18;;;;;;;1.48;1.38;;;;;31.00;96463.00;;;;8253948;28;20210;-69
2023/07/13 13:27:23;;;;;;;1.83;1.40;;;;;31.20;96460.00;;;;8254143;28;20290;-67
2023/07/13 13:31:29;;;;;;;4.00;1.75;;;;;31.30;96461.00;;;;8252157;28;20782;-68
2023/07/13 13:35:32;;;;;;;2.55;1.10;;;;;31.20;96451.00;;;;8253615;28;20217;-69
2023/07/13 13:39:38;;;;;;;3.13;1.35;;;;;31.40;96450.00;;;;8252774;28;21003;-69
2023/07/13 13:43:46;;;;;;;2.92;1.30;;;;;31.70;96455.00;;;;8246583;28;20207;-69
2023/07/13 13:47:59;;;;;;;3.78;1.45;;;;;31.70;96453.00;;;;8248927;28;20238;-70
2023/07/13 13:52:11;;;;;;;2.53;1.58;;;;;31.50;96453.00;;;;8244490;28;20206;-70
2023/07/13 13:56:16;;;;;;;2.05;1.30;;;;;31.90;96446.00;;;;8250494;28;20241;-70
2023/07/13 14:00:22;;;;;;;2.55;1.60;;;;;32.00;96453.00;;;;8252007;28;20211;-69
2023/07/13 14:04:25;;;;;;;3.35;1.45;;;;;32.00;96467.00;;;;8251707;28;20730;-71
2023/07/13 14:08:29;;;;;;;7.22;1.92;;;;;32.40;96460.00;;;;8247042;28;20213;-69
2023/07/13 14:12:35;;;;;;;1.60;1.50;;;;;32.30;96459.00;;;;8247792;28;20500;-67
2023/07/13 14:16:42;;;;;;;4.15;1.63;;;;;32.30;96458.00;;;;8249245;28;20266;-72
2023/07/13 14:20:46;;;;;;;3.33;1.60;;;;;32.00;96450.00;;;;8254525;28;20912;-70
2023/07/13 14:24:53;;;;;;;4.07;1.65;;;;;32.30;96445.00;;;;8241934;28;20295;-72
2023/07/13 14:28:59;;;;;;;1.80;1.50;;;;;32.40;96455.00;;;;8241296;28;20217;-73
2023/07/13 14:33:09;;;;;;;1.85;1.40;;;;;32.60;96460.00;;;;8243227;28;20230;-74
2023/07/13 14:37:15;;;;;;;2.92;1.50;;;;;32.70;96458.00;;;;8241683;28;20230;-71
2023/07/13 14:41:21;;;;;;;3.13;1.35;;;;;32.00;96463.00;;;;8240443;28;20320;-72
2023/07/13 14:45:29;;;;;;;2.78;1.77;;;;;31.40;96459.00;;;;8249864;28;20239;-71
2023/07/13 14:49:37;;;;;;;1.92;1.60;;;;;32.00;96455.00;;;;8249230;28;20290;-72
2023/07/13 14:53:42;;;;;;;2.17;1.40;;;;;32.70;96458.00;;;;8246602;28;20605;-71
2023/07/13 14:57:50;;;;;;;2.08;1.60;;;;;33.00;96461.00;;;;8245999;28;20325;-73
2023/07/13 15:01:54;;;;;;;2.63;1.50;;;;;32.60;96464.00;;;;8250176;28;20233;-71
2023/07/13 15:05:59;;;;;;;1.60;1.50;;;;;31.70;96467.00;;;;8248242;28;20227;-72
2023/07/13 15:10:03;;;;;;;4.28;1.77;;;;;31.20;96468.00;;;;8240403;28;20198;-72
2023/07/13 15:14:09;;;;;;;4.25;1.80;;;;;30.90;96458.00;;;;8247909;28;20311;-67
2023/07/13 15:18:17;;;;;;;5.03;1.55;;;;;30.40;96456.00;;;;8249822;28;20246;-70
2023/07/13 15:22:21;;;;;;;3.15;1.80;;;;;30.90;96445.00;;;;8252035;28;20211;-70
2023/07/13 15:26:25;;;;;;;2.10;1.50;;;;;31.30;96476.00;;;;8250553;28;20218;-70
2023/07/13 15:30:30;;;;;;;2.13;1.80;;;;;31.10;96465.00;;;;8251861;28;20235;-69
2023/07/13 15:34:41;;;;;;;4.03;1.80;;;;;31.10;96469.00;;;;8243923;28;20238;-69
2023/07/13 15:38:50;;;;;;;1.98;1.40;;;;;30.70;96462.00;;;;8246740;28;20269;-69
2023/07/13 15:42:54;;;;;;;4.05;1.77;;;;;30.20;96471.00;;;;8244234;28;20307;-70
2023/07/13 15:47:00;;;;;;;3.90;1.73;;;;;30.50;96468.00;;;;8250558;28;20213;-70
2023/07/13 15:51:09;;;;;;;3.08;1.67;;;;;30.90;96464.00;;;;8254296;28;20247;-70
2023/07/13 15:55:16;;;;;;;2.75;1.80;;;;;31.00;96462.00;;;;8251947;28;20238;-70
2023/07/13 15:59:20;;;;;;;3.67;1.80;;;;;31.30;96468.00;;;;8247159;28;20273;-70
2023/07/13 16:03:23;;;;;;;2.03;1.60;;;;;31.40;96495.00;;;;8247229;28;20237;-70
2023/07/13 16:07:28;;;;;;;1.95;1.55;;;;;31.30;96469.00;;;;8247319;28;20538;-70
2023/07/13 16:11:35;;;;;;;3.50;1.73;;;;;31.40;96480.00;;;;8243604;28;20325;-71
2023/07/13 16:15:44;;;;;;;1.65;1.55;;;;;31.20;96480.00;;;;8228784;28;20242;-71
2023/07/13 16:19:47;;;;;;;3.97;1.73;;;;;31.10;96478.00;;;;8250189;28;20250;-71
2023/07/13 16:23:51;;;;;;;3.15;1.65;;;;;31.30;96480.00;;;;8247302;28;20195;-71
2023/07/13 16:28:10;;;;;;;4.80;1.77;;;;;31.30;96479.00;;;;8242260;28;20206;-71
2023/07/13 16:32:17;;;;;;;4.65;2.08;;;;;31.60;96478.00;;;;8248923;28;20655;-71
2023/07/13 16:36:24;;;;;;;2.63;1.67;;;;;31.90;96477.00;;;;8249970;28;20210;-71
2023/07/13 16:40:31;;;;;;;4.53;1.80;;;;;31.80;96480.00;;;;8247173;28;20558;-71
2023/07/13 16:44:35;;;;;;;3.05;1.70;;;;;31.70;96489.00;;;;8249394;28;20300;-71
2023/07/13 16:48:39;;;;;;;2.78;1.67;;;;;31.50;96500.00;;;;8251565;28;20733;-71
2023/07/13 16:52:42;;;;;;;1.80;1.60;;;;;31.40;96497.00;;;;8247485;28;20806;-71
2023/07/13 16:56:47;;;;;;;1.73;1.63;;;;;31.20;96500.00;;;;8249525;28;20218;-71
2023/07/13 17:00:53;;;;;;;1.98;1.77;;;;;31.20;96499.00;;;;8244928;28;20266;-71
2023/07/13 17:04:56;;;;;;;3.67;1.73;;;;;31.60;96500.00;;;;8251746;28;20258;-71
2023/07/13 17:09:00;;;;;;;3.45;1.55;;;;;32.10;96508.00;;;;8254046;28;20213;-72
2023/07/13 17:13:11;;;;;;;6.50;1.65;;;;;31.60;96507.00;;;;8250433;28;20210;-72
2023/07/13 17:17:24;;;;;;;3.60;1.70;;;;;31.50;96501.00;;;;8256700;28;20230;-72
2023/07/13 17:21:30;;;;;;;3.45;1.60;;;;;31.20;96513.00;;;;8258137;28;20250;-72
2023/07/13 17:25:33;;;;;;;1.95;1.75;;;;;30.90;96516.00;;;;8256964;28;20281;-71
2023/07/13 17:29:47;;;;;;;1.63;1.50;;;;;30.50;96511.00;;;;8256800;28;20220;-71
2023/07/13 17:33:55;;;;;;;2.30;1.60;;;;;30.40;96518.00;;;;8256872;28;20214;-72
2023/07/13 17:38:02;;;;;;;4.32;2.13;;;;;30.40;96525.00;;;;8250213;28;20317;-72
2023/07/13 17:42:06;;;;;;;3.40;1.50;;;;;30.50;96514.00;;;;8253549;28;20237;-72
2023/07/13 17:46:15;;;;;;;3.08;1.83;;;;;30.70;96517.00;;;;8255162;28;20644;-72
2023/07/13 17:50:35;;;;;;;3.05;1.70;;;;;31.10;96525.00;;;;8249859;28;20203;-72
2023/07/13 17:54:39;;;;;;;4.30;1.63;;;;;31.20;96522.00;;;;8250419;28;20211;-72
2023/07/13 17:58:47;;;;;;;1.98;1.60;;;;;31.20;96530.00;;;;8247213;28;20293;-71
2023/07/13 18:02:50;;;;;;;4.25;1.30;;;;;30.90;96531.00;;;;8255658;28;20231;-71
2023/07/13 18:06:56;;;;;;;3.60;1.40;;;;;30.10;96530.00;;;;8254263;28;20233;-72
2023/07/13 18:11:02;;;;;;;4.25;1.92;;;;;29.30;96535.00;;;;8251209;28;20564;-71
2023/07/13 18:15:06;;;;;;;4.32;2.00;;;;;28.60;96526.00;;;;8247733;28;20290;-71
2023/07/13 18:19:31;;;;;;;4.07;1.67;;;;;28.00;96532.00;;;;8241542;28;20762;-71
2023/07/13 18:23:36;;;;;;;1.65;1.55;;;;;27.40;96527.00;;;;8260434;28;20225;-71
2023/07/13 18:27:39;;;;;;;3.58;1.50;;;;;27.00;96539.00;;;;8251850;28;20402;-71
2023/07/13 18:31:45;;;;;;;3.35;1.60;;;;;26.50;96542.00;;;;8248411;28;20827;-71
2023/07/13 18:35:52;;;;;;;3.55;1.80;;;;;25.80;96534.00;;;;8253638;28;20593;-71
2023/07/13 18:39:58;;;;;;;3.80;1.77;;;;;25.20;96539.00;;;;8253228;28;20261;-71
2023/07/13 18:44:01;;;;;;;2.20;2.00;;;;;24.50;96540.00;;;;8250086;28;20286;-70
2023/07/13 18:48:13;;;;;;;3.35;1.80;;;;;24.00;96544.00;;;;8253612;28;20214;-70
2023/07/13 18:52:20;;;;;;;3.45;1.83;;;;;23.60;96545.00;;;;8248619;28;20504;-70
2023/07/13 18:56:25;;;;;;;4.82;2.15;;;;;23.10;96540.00;;;;8250587;28;20210;-70
2023/07/13 19:00:30;;;;;;;4.40;1.65;;;;;22.70;96542.00;;;;8251272;28;20241;-70
2023/07/13 19:04:36;;;;;;;3.38;2.00;;;;;22.40;96550.00;;;;8252424;28;20912;-70
2023/07/13 19:08:43;;;;;;;10.43;2.70;;;;;22.10;96555.00;;;;8251424;28;20209;-70
2023/07/13 19:12:54;;;;;;;3.28;2.08;;;;;21.70;96554.00;;;;8246578;28;20237;-69
2023/07/13 19:16:59;;;;;;;7.28;2.20;;;;;21.40;96564.00;;;;8248437;28;20227;-70
2023/07/13 19:21:10;;;;;;;5.57;2.60;;;;;21.10;96570.00;;;;8246959;28;20235;-68
2023/07/13 19:25:17;;;;;;;6.72;2.33;;;;;20.80;96571.00;;;;8245751;28;20246;-71
2023/07/13 19:29:23;;;;;;;2.65;2.08;;;;;20.60;96570.00;;;;8247359;28;20302;-71
2023/07/13 19:33:30;;;;;;;3.85;2.15;;;;;20.30;96579.00;;;;8244414;28;20206;-70
2023/07/13 19:37:36;;;;;;;9.48;2.60;;;;;20.10;96588.00;;;;8241427;28;20695;-69
2023/07/13 19:41:39;;;;;;;4.32;3.20;;;;;19.90;96589.00;;;;8245082;28;20214;-70
2023/07/13 19:45:44;;;;;;;8.52;3.03;;;;;19.80;96598.00;;;;8247490;28;20207;-70
2023/07/13 19:49:48;;;;;;;4.78;2.50;;;;;19.60;96605.00;;;;8243041;28;20653;-68
2023/07/13 19:53:57;;;;;;;7.47;2.40;;;;;19.40;96598.00;;;;8239164;28;20810;-68
2023/07/13 19:58:03;;;;;;;3.38;2.25;;;;;19.20;96601.00;;;;8249546;28;20242;-69
2023/07/13 20:02:26;;;;;;;5.15;2.25;;;;;19.20;96610.00;;;;8245162;28;20256;-70
2023/07/13 20:06:34;;;;;;;3.70;2.30;;;;;19.00;96621.00;;;;8248607;28;20708;-70
2023/07/13 20:10:37;;;;;;;5.30;2.60;;;;;18.80;96619.00;;;;8244312;28;20257;-68
2023/07/13 20:14:46;;;;;;;5.68;2.60;;;;;18.70;96637.00;;;;8249283;28;20641;-68
2023/07/13 20:18:53;;;;;;;6.63;2.53;;;;;18.70;96634.00;;;;8244179;28;20241;-68
2023/07/13 20:23:01;;;;;;;3.95;2.25;;;;;18.60;96634.00;;;;8248548;28;20207;-68
2023/07/13 20:27:06;;;;;;;3.88;2.42;;;;;18.60;96645.00;;;;8248654;28;20199;-70
2023/07/13 20:31:15;;;;;;;6.63;2.70;;;;;18.60;96651.00;;;;8243260;28;20213;-68
2023/07/13 20:35:32;;;;;;;3.05;2.30;;;;;18.60;96651.00;;;;8244769;28;20210;-68